sensor_id;sensor_type;location;lat;lon;timestamp;temperature;humidity
44431;DHT22;30135;47.866;-4.222;2023-02-26T00:01:32;8.30;75.90
44431;DHT22;30135;47.866;-4.222;2023-02-26T00:04:02;8.30;75.90
44431;DHT22;30135;47.866;-4.222;2023-02-26T00:06:33;8.30;76.00
44431;DHT22;30135;47.866;-4.222;2023-02-26T00:09:02;8.30;76.00
44431;DHT22;30135;47.866;-4.222;2023-02-26T00:11:29;8.30;76.10
44431;DHT22;30135;47.866;-4.222;2023-02-26T00:13:55;8.30;76.20
44431;DHT22;30135;47.866;-4.222;2023-02-26T00:18:58;8.30;76.00
44431;DHT22;30135;47.866;-4.222;2023-02-26T00:21:27;8.30;76.10
44431;DHT22;30135;47.866;-4.222;2023-02-26T00:23:54;8.20;76.10
44431;DHT22;30135;47.866;-4.222;2023-02-26T00:26:24;8.20;76.10
44431;DHT22;30135;47.866;-4.222;2023-02-26T00:28:51;8.20;76.00
44431;DHT22;30135;47.866;-4.222;2023-02-26T00:31:18;8.20;76.10
44431;DHT22;30135;47.866;-4.222;2023-02-26T00:33:46;8.20;76.20
44431;DHT22;30135;47.866;-4.222;2023-02-26T00:36:57;8.20;76.30
44431;DHT22;30135;47.866;-4.222;2023-02-26T00:39:31;8.20;76.30
44431;DHT22;30135;47.866;-4.222;2023-02-26T00:42:03;8.20;76.30
44431;DHT22;30135;47.866;-4.222;2023-02-26T00:44:30;8.10;76.20
44431;DHT22;30135;47.866;-4.222;2023-02-26T00:47:23;8.10;76.20
44431;DHT22;30135;47.866;-4.222;2023-02-26T00:50:19;8.10;76.10
44431;DHT22;30135;47.866;-4.222;2023-02-26T00:53:03;8.10;76.20
44431;DHT22;30135;47.866;-4.222;2023-02-26T00:55:37;8.10;76.30
44431;DHT22;30135;47.866;-4.222;2023-02-26T00:58:03;8.10;76.30
44431;DHT22;30135;47.866;-4.222;2023-02-26T01:00:29;8.00;76.20
44431;DHT22;30135;47.866;-4.222;2023-02-26T01:02:55;8.00;76.20
44431;DHT22;30135;47.866;-4.222;2023-02-26T01:05:22;8.00;76.20
44431;DHT22;30135;47.866;-4.222;2023-02-26T01:10:55;8.00;76.30
44431;DHT22;30135;47.866;-4.222;2023-02-26T01:13:21;8.00;76.30
44431;DHT22;30135;47.866;-4.222;2023-02-26T01:15:53;7.90;76.30
44431;DHT22;30135;47.866;-4.222;2023-02-26T01:18:39;7.90;76.30
44431;DHT22;30135;47.866;-4.222;2023-02-26T01:21:16;7.90;76.40
44431;DHT22;30135;47.866;-4.222;2023-02-26T01:23:46;7.90;76.40
44431;DHT22;30135;47.866;-4.222;2023-02-26T01:26:22;7.90;76.50
44431;DHT22;30135;47.866;-4.222;2023-02-26T01:28:51;7.80;76.40
44431;DHT22;30135;47.866;-4.222;2023-02-26T01:31:38;7.80;76.50
44431;DHT22;30135;47.866;-4.222;2023-02-26T01:37:34;7.80;76.50
44431;DHT22;30135;47.866;-4.222;2023-02-26T01:49:16;7.60;76.50
44431;DHT22;30135;47.866;-4.222;2023-02-26T01:51:55;7.60;76.50
44431;DHT22;30135;47.866;-4.222;2023-02-26T01:54:42;7.60;76.50
44431;DHT22;30135;47.866;-4.222;2023-02-26T01:57:14;7.60;76.50
44431;DHT22;30135;47.866;-4.222;2023-02-26T01:59:44;7.50;76.60
44431;DHT22;30135;47.866;-4.222;2023-02-26T02:02:21;7.50;76.60
44431;DHT22;30135;47.866;-4.222;2023-02-26T02:04:49;7.50;76.60
44431;DHT22;30135;47.866;-4.222;2023-02-26T02:07:15;7.50;76.60
44431;DHT22;30135;47.866;-4.222;2023-02-26T02:09:42;7.50;76.60
44431;DHT22;30135;47.866;-4.222;2023-02-26T02:15:00;7.50;76.60
44431;DHT22;30135;47.866;-4.222;2023-02-26T02:23:13;7.40;76.60
44431;DHT22;30135;47.866;-4.222;2023-02-26T02:31:43;7.30;76.50
44431;DHT22;30135;47.866;-4.222;2023-02-26T02:40:28;7.30;76.60
44431;DHT22;30135;47.866;-4.222;2023-02-26T02:42:58;7.20;76.70
44431;DHT22;30135;47.866;-4.222;2023-02-26T02:45:34;7.20;76.80
44431;DHT22;30135;47.866;-4.222;2023-02-26T02:48:12;7.20;76.80
44431;DHT22;30135;47.866;-4.222;2023-02-26T02:50:43;7.10;76.70
44431;DHT22;30135;47.866;-4.222;2023-02-26T02:54:05;7.10;76.90
44431;DHT22;30135;47.866;-4.222;2023-02-26T02:56:15;7.10;76.90
44431;DHT22;30135;47.866;-4.222;2023-02-26T02:58:58;7.10;77.00
44431;DHT22;30135;47.866;-4.222;2023-02-26T03:01:28;7.00;76.90
44431;DHT22;30135;47.866;-4.222;2023-02-26T03:04:09;7.00;76.90
44431;DHT22;30135;47.866;-4.222;2023-02-26T03:06:37;7.00;77.10
44431;DHT22;30135;47.866;-4.222;2023-02-26T03:09:05;7.00;77.10
44431;DHT22;30135;47.866;-4.222;2023-02-26T03:11:32;7.00;77.10
44431;DHT22;30135;47.866;-4.222;2023-02-26T03:13:59;7.00;77.20
44431;DHT22;30135;47.866;-4.222;2023-02-26T03:22:57;7.00;77.10
44431;DHT22;30135;47.866;-4.222;2023-02-26T03:31:20;6.90;77.10
44431;DHT22;30135;47.866;-4.222;2023-02-26T03:33:58;6.90;77.20
44431;DHT22;30135;47.866;-4.222;2023-02-26T03:36:54;6.80;77.20
44431;DHT22;30135;47.866;-4.222;2023-02-26T03:39:33;6.80;77.30
44431;DHT22;30135;47.866;-4.222;2023-02-26T03:45:02;6.80;77.40
44431;DHT22;30135;47.866;-4.222;2023-02-26T03:47:33;6.80;77.40
44431;DHT22;30135;47.866;-4.222;2023-02-26T03:50:50;6.80;77.40
44431;DHT22;30135;47.866;-4.222;2023-02-26T03:53:11;6.80;77.50
44431;DHT22;30135;47.866;-4.222;2023-02-26T03:55:47;6.80;77.50
44431;DHT22;30135;47.866;-4.222;2023-02-26T03:58:18;6.70;77.40
44431;DHT22;30135;47.866;-4.222;2023-02-26T04:00:48;6.80;77.50
44431;DHT22;30135;47.866;-4.222;2023-02-26T04:05:53;6.70;77.40
44431;DHT22;30135;47.866;-4.222;2023-02-26T04:08:22;6.70;77.40
44431;DHT22;30135;47.866;-4.222;2023-02-26T04:10:58;6.70;77.50
44431;DHT22;30135;47.866;-4.222;2023-02-26T04:13:30;6.70;77.50
44431;DHT22;30135;47.866;-4.222;2023-02-26T04:15:57;6.70;77.50
44431;DHT22;30135;47.866;-4.222;2023-02-26T04:18:23;6.70;77.50
44431;DHT22;30135;47.866;-4.222;2023-02-26T04:20:49;6.70;77.50
44431;DHT22;30135;47.866;-4.222;2023-02-26T04:23:15;6.70;77.50
44431;DHT22;30135;47.866;-4.222;2023-02-26T04:25:41;6.70;77.50
44431;DHT22;30135;47.866;-4.222;2023-02-26T04:28:07;6.60;77.40
44431;DHT22;30135;47.866;-4.222;2023-02-26T04:30:33;6.60;77.50
44431;DHT22;30135;47.866;-4.222;2023-02-26T04:32:59;6.60;77.50
44431;DHT22;30135;47.866;-4.222;2023-02-26T04:35:25;6.60;77.40
44431;DHT22;30135;47.866;-4.222;2023-02-26T04:37:51;6.60;77.50
44431;DHT22;30135;47.866;-4.222;2023-02-26T04:40:17;6.60;77.50
44431;DHT22;30135;47.866;-4.222;2023-02-26T04:42:43;6.50;77.30
44431;DHT22;30135;47.866;-4.222;2023-02-26T04:45:09;6.50;77.30
44431;DHT22;30135;47.866;-4.222;2023-02-26T04:47:35;6.50;77.10
44431;DHT22;30135;47.866;-4.222;2023-02-26T04:50:02;6.50;77.00
44431;DHT22;30135;47.866;-4.222;2023-02-26T04:52:28;6.50;77.10
44431;DHT22;30135;47.866;-4.222;2023-02-26T04:54:54;6.50;77.10
44431;DHT22;30135;47.866;-4.222;2023-02-26T04:57:20;6.40;77.10
44431;DHT22;30135;47.866;-4.222;2023-02-26T04:59:46;6.40;76.90
44431;DHT22;30135;47.866;-4.222;2023-02-26T05:02:12;6.40;76.80
44431;DHT22;30135;47.866;-4.222;2023-02-26T05:04:38;6.40;76.80
44431;DHT22;30135;47.866;-4.222;2023-02-26T05:07:04;6.40;76.80
44431;DHT22;30135;47.866;-4.222;2023-02-26T05:09:30;6.40;76.80
44431;DHT22;30135;47.866;-4.222;2023-02-26T05:11:56;6.40;76.80
44431;DHT22;30135;47.866;-4.222;2023-02-26T05:14:22;6.40;76.80
44431;DHT22;30135;47.866;-4.222;2023-02-26T05:16:48;6.40;76.70
44431;DHT22;30135;47.866;-4.222;2023-02-26T05:19:14;6.40;76.70
44431;DHT22;30135;47.866;-4.222;2023-02-26T05:21:40;6.40;76.70
44431;DHT22;30135;47.866;-4.222;2023-02-26T05:24:07;6.40;76.70
44431;DHT22;30135;47.866;-4.222;2023-02-26T05:26:39;6.40;76.70
44431;DHT22;30135;47.866;-4.222;2023-02-26T05:29:05;6.30;76.60
44431;DHT22;30135;47.866;-4.222;2023-02-26T05:31:31;6.40;76.60
44431;DHT22;30135;47.866;-4.222;2023-02-26T05:33:58;6.30;76.50
44431;DHT22;30135;47.866;-4.222;2023-02-26T05:36:24;6.30;76.50
44431;DHT22;30135;47.866;-4.222;2023-02-26T05:38:50;6.30;76.50
44431;DHT22;30135;47.866;-4.222;2023-02-26T05:41:17;6.30;76.50
44431;DHT22;30135;47.866;-4.222;2023-02-26T05:43:43;6.30;76.40
44431;DHT22;30135;47.866;-4.222;2023-02-26T05:46:09;6.30;76.40
44431;DHT22;30135;47.866;-4.222;2023-02-26T05:48:35;6.20;76.40
44431;DHT22;30135;47.866;-4.222;2023-02-26T05:51:01;6.20;76.40
44431;DHT22;30135;47.866;-4.222;2023-02-26T05:53:27;6.20;76.40
44431;DHT22;30135;47.866;-4.222;2023-02-26T05:55:54;6.20;76.40
44431;DHT22;30135;47.866;-4.222;2023-02-26T05:58:20;6.20;76.40
44431;DHT22;30135;47.866;-4.222;2023-02-26T06:00:46;6.10;76.40
44431;DHT22;30135;47.866;-4.222;2023-02-26T06:03:12;6.10;76.30
44431;DHT22;30135;47.866;-4.222;2023-02-26T06:05:38;6.10;77.10
44431;DHT22;30135;47.866;-4.222;2023-02-26T06:08:05;6.10;76.30
44431;DHT22;30135;47.866;-4.222;2023-02-26T06:10:31;6.10;76.30
44431;DHT22;30135;47.866;-4.222;2023-02-26T06:12:57;6.10;76.30
44431;DHT22;30135;47.866;-4.222;2023-02-26T06:15:23;6.00;76.30
44431;DHT22;30135;47.866;-4.222;2023-02-26T06:17:49;6.00;76.00
44431;DHT22;30135;47.866;-4.222;2023-02-26T06:20:15;6.00;76.10
44431;DHT22;30135;47.866;-4.222;2023-02-26T06:22:41;6.00;75.90
44431;DHT22;30135;47.866;-4.222;2023-02-26T06:25:08;6.00;75.90
44431;DHT22;30135;47.866;-4.222;2023-02-26T06:27:34;5.90;76.00
44431;DHT22;30135;47.866;-4.222;2023-02-26T06:30:00;5.90;75.90
44431;DHT22;30135;47.866;-4.222;2023-02-26T06:32:26;5.90;75.90
44431;DHT22;30135;47.866;-4.222;2023-02-26T06:34:52;5.90;75.90
44431;DHT22;30135;47.866;-4.222;2023-02-26T06:37:18;5.90;75.80
44431;DHT22;30135;47.866;-4.222;2023-02-26T06:39:44;5.90;75.70
44431;DHT22;30135;47.866;-4.222;2023-02-26T06:42:10;5.90;75.60
44431;DHT22;30135;47.866;-4.222;2023-02-26T06:44:36;5.90;75.50
44431;DHT22;30135;47.866;-4.222;2023-02-26T06:47:02;5.90;75.40
44431;DHT22;30135;47.866;-4.222;2023-02-26T06:49:28;5.90;75.40
44431;DHT22;30135;47.866;-4.222;2023-02-26T06:51:54;5.90;75.40
44431;DHT22;30135;47.866;-4.222;2023-02-26T06:54:21;5.80;75.30
44431;DHT22;30135;47.866;-4.222;2023-02-26T06:56:47;5.80;75.30
44431;DHT22;30135;47.866;-4.222;2023-02-26T06:59:13;5.80;75.20
44431;DHT22;30135;47.866;-4.222;2023-02-26T07:01:40;5.80;75.10
44431;DHT22;30135;47.866;-4.222;2023-02-26T07:04:06;5.80;75.10
44431;DHT22;30135;47.866;-4.222;2023-02-26T07:06:32;5.70;75.00
44431;DHT22;30135;47.866;-4.222;2023-02-26T07:08:58;5.70;75.00
44431;DHT22;30135;47.866;-4.222;2023-02-26T07:11:24;5.70;74.80
44431;DHT22;30135;47.866;-4.222;2023-02-26T07:13:50;5.70;74.80
44431;DHT22;30135;47.866;-4.222;2023-02-26T07:16:16;5.70;74.80
44431;DHT22;30135;47.866;-4.222;2023-02-26T07:18:42;5.70;74.80
44431;DHT22;30135;47.866;-4.222;2023-02-26T07:21:08;5.70;74.70
44431;DHT22;30135;47.866;-4.222;2023-02-26T07:23:34;5.70;74.70
44431;DHT22;30135;47.866;-4.222;2023-02-26T07:26:00;5.60;74.60
44431;DHT22;30135;47.866;-4.222;2023-02-26T07:28:27;5.60;74.50
44431;DHT22;30135;47.866;-4.222;2023-02-26T07:30:54;5.60;74.50
44431;DHT22;30135;47.866;-4.222;2023-02-26T07:33:21;5.60;74.40
44431;DHT22;30135;47.866;-4.222;2023-02-26T07:35:47;5.60;74.40
44431;DHT22;30135;47.866;-4.222;2023-02-26T07:38:13;5.60;74.40
44431;DHT22;30135;47.866;-4.222;2023-02-26T07:40:39;5.60;74.50
44431;DHT22;30135;47.866;-4.222;2023-02-26T07:43:05;5.60;74.60
44431;DHT22;30135;47.866;-4.222;2023-02-26T07:45:31;5.60;74.60
44431;DHT22;30135;47.866;-4.222;2023-02-26T07:48:00;5.50;74.50
44431;DHT22;30135;47.866;-4.222;2023-02-26T07:50:26;5.50;74.40
44431;DHT22;30135;47.866;-4.222;2023-02-26T07:52:52;5.50;74.40
44431;DHT22;30135;47.866;-4.222;2023-02-26T07:55:18;5.50;74.50
44431;DHT22;30135;47.866;-4.222;2023-02-26T07:57:45;5.50;74.30
44431;DHT22;30135;47.866;-4.222;2023-02-26T08:00:11;5.50;74.10
44431;DHT22;30135;47.866;-4.222;2023-02-26T08:02:39;5.50;74.00
44431;DHT22;30135;47.866;-4.222;2023-02-26T08:05:05;5.50;73.80
44431;DHT22;30135;47.866;-4.222;2023-02-26T08:07:31;5.40;73.70
44431;DHT22;30135;47.866;-4.222;2023-02-26T08:09:57;5.40;73.80
44431;DHT22;30135;47.866;-4.222;2023-02-26T08:12:23;5.40;73.90
44431;DHT22;30135;47.866;-4.222;2023-02-26T08:14:49;5.50;73.80
44431;DHT22;30135;47.866;-4.222;2023-02-26T08:17:15;5.50;73.90
44431;DHT22;30135;47.866;-4.222;2023-02-26T08:19:41;5.50;73.70
44431;DHT22;30135;47.866;-4.222;2023-02-26T08:22:07;5.50;73.40
44431;DHT22;30135;47.866;-4.222;2023-02-26T08:24:33;5.50;73.30
44431;DHT22;30135;47.866;-4.222;2023-02-26T08:26:59;5.50;72.80
44431;DHT22;30135;47.866;-4.222;2023-02-26T08:29:25;5.50;72.70
44431;DHT22;30135;47.866;-4.222;2023-02-26T08:31:51;5.50;72.90
44431;DHT22;30135;47.866;-4.222;2023-02-26T08:34:17;5.60;72.50
44431;DHT22;30135;47.866;-4.222;2023-02-26T08:36:44;5.60;72.70
44431;DHT22;30135;47.866;-4.222;2023-02-26T08:39:10;5.60;72.20
44431;DHT22;30135;47.866;-4.222;2023-02-26T08:41:36;5.60;71.70
44431;DHT22;30135;47.866;-4.222;2023-02-26T08:44:02;5.60;71.90
44431;DHT22;30135;47.866;-4.222;2023-02-26T08:46:28;5.60;71.80
44431;DHT22;30135;47.866;-4.222;2023-02-26T08:48:54;5.60;71.80
44431;DHT22;30135;47.866;-4.222;2023-02-26T08:51:21;5.60;71.50
44431;DHT22;30135;47.866;-4.222;2023-02-26T08:53:47;5.70;72.10
44431;DHT22;30135;47.866;-4.222;2023-02-26T08:56:15;5.70;71.50
44431;DHT22;30135;47.866;-4.222;2023-02-26T08:58:41;5.70;70.60
44431;DHT22;30135;47.866;-4.222;2023-02-26T09:01:08;5.70;70.40
44431;DHT22;30135;47.866;-4.222;2023-02-26T09:03:34;5.80;70.40
44431;DHT22;30135;47.866;-4.222;2023-02-26T09:06:01;5.80;70.20
44431;DHT22;30135;47.866;-4.222;2023-02-26T09:08:29;5.80;69.70
44431;DHT22;30135;47.866;-4.222;2023-02-26T09:11:01;5.90;69.30
44431;DHT22;30135;47.866;-4.222;2023-02-26T09:13:29;5.90;69.00
44431;DHT22;30135;47.866;-4.222;2023-02-26T09:15:55;5.90;68.90
44431;DHT22;30135;47.866;-4.222;2023-02-26T09:18:21;5.90;68.40
44431;DHT22;30135;47.866;-4.222;2023-02-26T09:20:51;5.90;68.50
44431;DHT22;30135;47.866;-4.222;2023-02-26T09:23:17;6.00;67.80
44431;DHT22;30135;47.866;-4.222;2023-02-26T09:25:43;6.00;68.50
44431;DHT22;30135;47.866;-4.222;2023-02-26T09:28:09;6.10;67.90
44431;DHT22;30135;47.866;-4.222;2023-02-26T09:30:35;6.10;68.40
44431;DHT22;30135;47.866;-4.222;2023-02-26T09:33:01;6.20;68.10
44431;DHT22;30135;47.866;-4.222;2023-02-26T09:35:27;6.20;67.40
44431;DHT22;30135;47.866;-4.222;2023-02-26T09:37:54;6.20;66.90
44431;DHT22;30135;47.866;-4.222;2023-02-26T09:49:27;6.30;65.40
44431;DHT22;30135;47.866;-4.222;2023-02-26T09:52:16;6.40;65.70
44431;DHT22;30135;47.866;-4.222;2023-02-26T09:54:47;6.40;65.20
44431;DHT22;30135;47.866;-4.222;2023-02-26T09:57:31;6.50;64.90
44431;DHT22;30135;47.866;-4.222;2023-02-26T10:02:53;6.60;64.80
44431;DHT22;30135;47.866;-4.222;2023-02-26T10:05:52;6.70;65.40
44431;DHT22;30135;47.866;-4.222;2023-02-26T10:08:24;6.70;63.90
44431;DHT22;30135;47.866;-4.222;2023-02-26T10:20:26;6.90;63.50
44431;DHT22;30135;47.866;-4.222;2023-02-26T10:23:15;6.90;62.70
44431;DHT22;30135;47.866;-4.222;2023-02-26T10:26:21;7.00;62.70
44431;DHT22;30135;47.866;-4.222;2023-02-26T10:43:03;7.20;62.20
44431;DHT22;30135;47.866;-4.222;2023-02-26T10:46:01;7.30;61.80
44431;DHT22;30135;47.866;-4.222;2023-02-26T10:51:16;7.30;61.40
44431;DHT22;30135;47.866;-4.222;2023-02-26T10:53:48;7.30;61.10
44431;DHT22;30135;47.866;-4.222;2023-02-26T10:56:22;7.40;61.60
44431;DHT22;30135;47.866;-4.222;2023-02-26T10:58:51;7.40;60.70
44431;DHT22;30135;47.866;-4.222;2023-02-26T11:01:24;7.50;61.40
44431;DHT22;30135;47.866;-4.222;2023-02-26T11:04:07;7.50;62.10
44431;DHT22;30135;47.866;-4.222;2023-02-26T11:06:42;7.50;61.10
44431;DHT22;30135;47.866;-4.222;2023-02-26T11:09:38;7.60;61.30
44431;DHT22;30135;47.866;-4.222;2023-02-26T11:14:36;7.70;61.10
44431;DHT22;30135;47.866;-4.222;2023-02-26T11:17:23;7.70;61.10
44431;DHT22;30135;47.866;-4.222;2023-02-26T11:20:00;7.80;60.00
44431;DHT22;30135;47.866;-4.222;2023-02-26T11:22:34;7.80;60.20
44431;DHT22;30135;47.866;-4.222;2023-02-26T11:25:03;7.90;59.90
44431;DHT22;30135;47.866;-4.222;2023-02-26T11:27:37;8.00;59.60
44431;DHT22;30135;47.866;-4.222;2023-02-26T11:30:15;8.00;59.80
44431;DHT22;30135;47.866;-4.222;2023-02-26T11:32:44;8.10;59.20
44431;DHT22;30135;47.866;-4.222;2023-02-26T11:35:16;8.10;59.00
44431;DHT22;30135;47.866;-4.222;2023-02-26T11:37:48;8.20;59.10
44431;DHT22;30135;47.866;-4.222;2023-02-26T11:40:39;8.20;58.90
44431;DHT22;30135;47.866;-4.222;2023-02-26T11:43:18;8.30;57.80
44431;DHT22;30135;47.866;-4.222;2023-02-26T11:45:51;8.40;58.00
44431;DHT22;30135;47.866;-4.222;2023-02-26T11:48:42;8.40;58.20
44431;DHT22;30135;47.866;-4.222;2023-02-26T11:51:14;8.40;57.70
44431;DHT22;30135;47.866;-4.222;2023-02-26T11:53:57;8.50;57.80
44431;DHT22;30135;47.866;-4.222;2023-02-26T11:56:42;8.50;57.70
44431;DHT22;30135;47.866;-4.222;2023-02-26T11:59:21;8.50;57.40
44431;DHT22;30135;47.866;-4.222;2023-02-26T12:01:49;8.60;56.70
44431;DHT22;30135;47.866;-4.222;2023-02-26T12:06:51;8.60;57.30
44431;DHT22;30135;47.866;-4.222;2023-02-26T12:09:18;8.60;56.60
44431;DHT22;30135;47.866;-4.222;2023-02-26T12:15:16;8.70;56.50
44431;DHT22;30135;47.866;-4.222;2023-02-26T12:20:28;8.60;56.20
44431;DHT22;30135;47.866;-4.222;2023-02-26T12:23:30;8.70;56.90
44431;DHT22;30135;47.866;-4.222;2023-02-26T12:34:58;8.80;55.90
44431;DHT22;30135;47.866;-4.222;2023-02-26T12:37:48;8.80;56.30
44431;DHT22;30135;47.866;-4.222;2023-02-26T12:46:13;8.80;56.40
44431;DHT22;30135;47.866;-4.222;2023-02-26T12:57:54;9.00;55.70
44431;DHT22;30135;47.866;-4.222;2023-02-26T13:09:40;9.00;55.60
44431;DHT22;30135;47.866;-4.222;2023-02-26T13:12:27;9.10;55.90
44431;DHT22;30135;47.866;-4.222;2023-02-26T13:17:56;9.10;54.90
44431;DHT22;30135;47.866;-4.222;2023-02-26T13:20:31;9.10;55.80
44431;DHT22;30135;47.866;-4.222;2023-02-26T13:23:11;9.10;55.90
44431;DHT22;30135;47.866;-4.222;2023-02-26T13:28:33;9.10;56.00
44431;DHT22;30135;47.866;-4.222;2023-02-26T13:31:03;9.10;55.90
44431;DHT22;30135;47.866;-4.222;2023-02-26T13:33:33;9.10;56.10
44431;DHT22;30135;47.866;-4.222;2023-02-26T13:36:01;9.10;56.50
44431;DHT22;30135;47.866;-4.222;2023-02-26T13:41:55;9.10;56.00
44431;DHT22;30135;47.866;-4.222;2023-02-26T13:44:38;9.10;55.60
44431;DHT22;30135;47.866;-4.222;2023-02-26T13:53:32;9.20;56.10
44431;DHT22;30135;47.866;-4.222;2023-02-26T13:56:16;9.30;56.40
44431;DHT22;30135;47.866;-4.222;2023-02-26T13:59:03;9.30;56.40
44431;DHT22;30135;47.866;-4.222;2023-02-26T14:06:55;9.30;56.60
44431;DHT22;30135;47.866;-4.222;2023-02-26T14:10:02;9.30;56.90
44431;DHT22;30135;47.866;-4.222;2023-02-26T14:12:42;9.30;56.90
44431;DHT22;30135;47.866;-4.222;2023-02-26T14:17:49;9.30;57.10
44431;DHT22;30135;47.866;-4.222;2023-02-26T14:20:29;9.40;57.20
44431;DHT22;30135;47.866;-4.222;2023-02-26T14:25:40;9.40;57.40
44431;DHT22;30135;47.866;-4.222;2023-02-26T14:34:19;9.50;57.90
44431;DHT22;30135;47.866;-4.222;2023-02-26T14:39:22;9.50;58.20
44431;DHT22;30135;47.866;-4.222;2023-02-26T14:42:00;9.50;58.40
44431;DHT22;30135;47.866;-4.222;2023-02-26T14:44:36;9.60;58.50
44431;DHT22;30135;47.866;-4.222;2023-02-26T14:47:05;9.60;58.50
44431;DHT22;30135;47.866;-4.222;2023-02-26T14:49:43;9.60;58.60
44431;DHT22;30135;47.866;-4.222;2023-02-26T15:07:33;9.50;58.90
44431;DHT22;30135;47.866;-4.222;2023-02-26T15:15:40;9.60;59.40
44431;DHT22;30135;47.866;-4.222;2023-02-26T15:24:44;9.70;59.00
44431;DHT22;30135;47.866;-4.222;2023-02-26T15:27:15;9.80;59.20
44431;DHT22;30135;47.866;-4.222;2023-02-26T15:29:43;9.80;59.40
44431;DHT22;30135;47.866;-4.222;2023-02-26T15:32:28;9.80;59.20
44431;DHT22;30135;47.866;-4.222;2023-02-26T15:35:17;9.90;59.30
44431;DHT22;30135;47.866;-4.222;2023-02-26T15:37:53;9.90;59.10
44431;DHT22;30135;47.866;-4.222;2023-02-26T15:40:22;9.90;58.80
44431;DHT22;30135;47.866;-4.222;2023-02-26T15:42:52;9.90;58.70
44431;DHT22;30135;47.866;-4.222;2023-02-26T15:45:21;9.90;58.70
44431;DHT22;30135;47.866;-4.222;2023-02-26T15:47:56;9.90;58.90
44431;DHT22;30135;47.866;-4.222;2023-02-26T15:50:27;9.90;59.00
44431;DHT22;30135;47.866;-4.222;2023-02-26T15:52:58;9.90;59.00
44431;DHT22;30135;47.866;-4.222;2023-02-26T15:55:35;10.00;59.10
44431;DHT22;30135;47.866;-4.222;2023-02-26T15:58:05;10.10;58.50
44431;DHT22;30135;47.866;-4.222;2023-02-26T16:00:35;10.00;57.90
44431;DHT22;30135;47.866;-4.222;2023-02-26T16:03:02;10.00;57.80
44431;DHT22;30135;47.866;-4.222;2023-02-26T16:05:29;10.00;57.80
44431;DHT22;30135;47.866;-4.222;2023-02-26T16:07:56;10.00;57.70
44431;DHT22;30135;47.866;-4.222;2023-02-26T16:10:39;9.90;57.60
44431;DHT22;30135;47.866;-4.222;2023-02-26T16:13:13;9.90;57.70
44431;DHT22;30135;47.866;-4.222;2023-02-26T16:15:40;9.90;57.70
44431;DHT22;30135;47.866;-4.222;2023-02-26T16:18:13;9.80;57.70
44431;DHT22;30135;47.866;-4.222;2023-02-26T16:20:44;9.80;58.00
44431;DHT22;30135;47.866;-4.222;2023-02-26T16:23:16;9.70;57.80
44431;DHT22;30135;47.866;-4.222;2023-02-26T16:25:52;9.70;57.90
44431;DHT22;30135;47.866;-4.222;2023-02-26T16:28:32;9.70;57.60
44431;DHT22;30135;47.866;-4.222;2023-02-26T16:31:03;9.70;57.50
44431;DHT22;30135;47.866;-4.222;2023-02-26T16:33:33;9.60;57.10
44431;DHT22;30135;47.866;-4.222;2023-02-26T16:36:14;9.50;56.90
44431;DHT22;30135;47.866;-4.222;2023-02-26T16:38:49;9.50;56.40
44431;DHT22;30135;47.866;-4.222;2023-02-26T16:41:34;9.40;56.50
44431;DHT22;30135;47.866;-4.222;2023-02-26T16:47:26;9.30;55.60
44431;DHT22;30135;47.866;-4.222;2023-02-26T16:50:24;9.30;56.30
44431;DHT22;30135;47.866;-4.222;2023-02-26T16:53:03;9.20;55.50
44431;DHT22;30135;47.866;-4.222;2023-02-26T16:55:35;9.10;55.80
44431;DHT22;30135;47.866;-4.222;2023-02-26T16:58:03;9.10;55.60
44431;DHT22;30135;47.866;-4.222;2023-02-26T17:00:32;9.10;55.80
44431;DHT22;30135;47.866;-4.222;2023-02-26T17:03:22;9.00;55.70
44431;DHT22;30135;47.866;-4.222;2023-02-26T17:05:57;9.00;55.40
44431;DHT22;30135;47.866;-4.222;2023-02-26T17:08:29;9.00;56.00
44431;DHT22;30135;47.866;-4.222;2023-02-26T17:11:06;8.90;55.70
44431;DHT22;30135;47.866;-4.222;2023-02-26T17:13:34;8.80;55.90
44431;DHT22;30135;47.866;-4.222;2023-02-26T17:16:04;8.80;55.80
44431;DHT22;30135;47.866;-4.222;2023-02-26T17:18:32;8.80;56.10
44431;DHT22;30135;47.866;-4.222;2023-02-26T17:20:59;8.80;56.30
44431;DHT22;30135;47.866;-4.222;2023-02-26T17:23:32;8.70;55.70
44431;DHT22;30135;47.866;-4.222;2023-02-26T17:26:01;8.70;55.90
44431;DHT22;30135;47.866;-4.222;2023-02-26T17:28:37;8.60;55.60
44431;DHT22;30135;47.866;-4.222;2023-02-26T17:31:05;8.60;55.80
44431;DHT22;30135;47.866;-4.222;2023-02-26T17:33:32;8.50;55.90
44431;DHT22;30135;47.866;-4.222;2023-02-26T17:36:00;8.50;55.80
44431;DHT22;30135;47.866;-4.222;2023-02-26T17:38:26;8.40;56.00
44431;DHT22;30135;47.866;-4.222;2023-02-26T17:40:53;8.40;56.20
44431;DHT22;30135;47.866;-4.222;2023-02-26T17:43:23;8.40;56.60
44431;DHT22;30135;47.866;-4.222;2023-02-26T17:45:50;8.40;56.50
44431;DHT22;30135;47.866;-4.222;2023-02-26T17:48:16;8.40;56.60
44431;DHT22;30135;47.866;-4.222;2023-02-26T17:53:22;8.30;56.50
44431;DHT22;30135;47.866;-4.222;2023-02-26T17:55:52;8.20;56.80
44431;DHT22;30135;47.866;-4.222;2023-02-26T17:58:32;8.20;56.90
44431;DHT22;30135;47.866;-4.222;2023-02-26T18:00:59;8.20;57.00
44431;DHT22;30135;47.866;-4.222;2023-02-26T18:03:25;8.10;57.00
44431;DHT22;30135;47.866;-4.222;2023-02-26T18:05:53;8.10;56.80
44431;DHT22;30135;47.866;-4.222;2023-02-26T18:08:29;8.00;56.70
44431;DHT22;30135;47.866;-4.222;2023-02-26T18:10:57;8.00;56.90
44431;DHT22;30135;47.866;-4.222;2023-02-26T18:13:24;7.90;56.90
44431;DHT22;30135;47.866;-4.222;2023-02-26T18:15:51;7.90;57.60
44431;DHT22;30135;47.866;-4.222;2023-02-26T18:18:17;7.90;57.10
44431;DHT22;30135;47.866;-4.222;2023-02-26T18:20:44;7.90;57.30
44431;DHT22;30135;47.866;-4.222;2023-02-26T18:23:11;7.90;57.30
44431;DHT22;30135;47.866;-4.222;2023-02-26T18:25:39;7.80;57.40
44431;DHT22;30135;47.866;-4.222;2023-02-26T18:28:08;7.80;57.40
44431;DHT22;30135;47.866;-4.222;2023-02-26T18:30:39;7.80;57.70
44431;DHT22;30135;47.866;-4.222;2023-02-26T18:33:07;7.80;57.70
44431;DHT22;30135;47.866;-4.222;2023-02-26T18:35:33;7.70;57.80
44431;DHT22;30135;47.866;-4.222;2023-02-26T18:37:59;7.70;57.80
44431;DHT22;30135;47.866;-4.222;2023-02-26T18:40:27;7.70;57.90
44431;DHT22;30135;47.866;-4.222;2023-02-26T18:42:53;7.70;57.90
44431;DHT22;30135;47.866;-4.222;2023-02-26T18:45:20;7.70;58.10
44431;DHT22;30135;47.866;-4.222;2023-02-26T18:47:46;7.70;58.20
44431;DHT22;30135;47.866;-4.222;2023-02-26T18:50:15;7.60;58.50
44431;DHT22;30135;47.866;-4.222;2023-02-26T18:52:42;7.60;58.30
44431;DHT22;30135;47.866;-4.222;2023-02-26T18:55:12;7.60;58.20
44431;DHT22;30135;47.866;-4.222;2023-02-26T18:57:39;7.60;58.40
44431;DHT22;30135;47.866;-4.222;2023-02-26T19:00:10;7.60;58.30
44431;DHT22;30135;47.866;-4.222;2023-02-26T19:02:42;7.50;58.30
44431;DHT22;30135;47.866;-4.222;2023-02-26T19:05:11;7.50;58.50
44431;DHT22;30135;47.866;-4.222;2023-02-26T19:07:38;7.50;58.70
44431;DHT22;30135;47.866;-4.222;2023-02-26T19:10:07;7.50;58.80
44431;DHT22;30135;47.866;-4.222;2023-02-26T19:12:38;7.50;58.80
44431;DHT22;30135;47.866;-4.222;2023-02-26T19:15:04;7.40;58.80
44431;DHT22;30135;47.866;-4.222;2023-02-26T19:17:31;7.40;59.00
44431;DHT22;30135;47.866;-4.222;2023-02-26T19:19:57;7.40;59.10
44431;DHT22;30135;47.866;-4.222;2023-02-26T19:22:23;7.40;59.10